sensor_id;sensor_type;location;lat;lon;timestamp;P1;durP1;ratioP1;P2;durP2;ratioP2
12703;SDS011;6416;52.182;7.650;2023-12-29T00:02:27;5.10;;;2.10;;
12703;SDS011;6416;52.182;7.650;2023-12-29T00:04:55;4.73;;;2.30;;
12703;SDS011;6416;52.182;7.650;2023-12-29T00:07:24;5.87;;;2.00;;
12703;SDS011;6416;52.182;7.650;2023-12-29T00:09:49;5.47;;;1.97;;
12703;SDS011;6416;52.182;7.650;2023-12-29T00:12:15;5.87;;;1.80;;
12703;SDS011;6416;52.182;7.650;2023-12-29T00:14:46;4.87;;;1.90;;
12703;SDS011;6416;52.182;7.650;2023-12-29T00:17:12;5.23;;;2.20;;
12703;SDS011;6416;52.182;7.650;2023-12-29T00:19:37;5.07;;;1.90;;
12703;SDS011;6416;52.182;7.650;2023-12-29T00:22:03;5.13;;;1.70;;
12703;SDS011;6416;52.182;7.650;2023-12-29T00:24:34;8.10;;;1.97;;
12703;SDS011;6416;52.182;7.650;2023-12-29T00:27:02;6.37;;;2.23;;
12703;SDS011;6416;52.182;7.650;2023-12-29T00:29:31;6.27;;;2.00;;
12703;SDS011;6416;52.182;7.650;2023-12-29T00:31:57;6.73;;;2.00;;
12703;SDS011;6416;52.182;7.650;2023-12-29T00:34:28;4.47;;;1.90;;
12703;SDS011;6416;52.182;7.650;2023-12-29T00:36:57;5.10;;;1.60;;
12703;SDS011;6416;52.182;7.650;2023-12-29T00:39:26;3.63;;;1.40;;
12703;SDS011;6416;52.182;7.650;2023-12-29T00:41:52;7.03;;;1.60;;
12703;SDS011;6416;52.182;7.650;2023-12-29T00:44:17;3.47;;;1.40;;
12703;SDS011;6416;52.182;7.650;2023-12-29T00:46:43;5.97;;;1.90;;
12703;SDS011;6416;52.182;7.650;2023-12-29T00:49:09;7.50;;;1.97;;
12703;SDS011;6416;52.182;7.650;2023-12-29T00:51:38;6.50;;;1.90;;
12703;SDS011;6416;52.182;7.650;2023-12-29T00:54:04;5.83;;;1.80;;
12703;SDS011;6416;52.182;7.650;2023-12-29T00:56:30;4.63;;;1.90;;
12703;SDS011;6416;52.182;7.650;2023-12-29T00:58:56;5.63;;;1.83;;
12703;SDS011;6416;52.182;7.650;2023-12-29T01:01:21;7.67;;;2.40;;
12703;SDS011;6416;52.182;7.650;2023-12-29T01:03:47;7.97;;;2.00;;
12703;SDS011;6416;52.182;7.650;2023-12-29T01:06:12;3.73;;;1.77;;
12703;SDS011;6416;52.182;7.650;2023-12-29T01:08:41;4.27;;;1.60;;
12703;SDS011;6416;52.182;7.650;2023-12-29T01:11:07;5.33;;;1.93;;
12703;SDS011;6416;52.182;7.650;2023-12-29T01:13:40;6.27;;;1.80;;
12703;SDS011;6416;52.182;7.650;2023-12-29T01:16:08;5.70;;;1.90;;
12703;SDS011;6416;52.182;7.650;2023-12-29T01:18:34;4.17;;;1.80;;
12703;SDS011;6416;52.182;7.650;2023-12-29T01:21:00;5.23;;;1.60;;
12703;SDS011;6416;52.182;7.650;2023-12-29T01:23:25;6.17;;;1.97;;
12703;SDS011;6416;52.182;7.650;2023-12-29T01:26:14;3.90;;;1.47;;
12703;SDS011;6416;52.182;7.650;2023-12-29T01:28:42;6.23;;;2.03;;
12703;SDS011;6416;52.182;7.650;2023-12-29T01:31:07;5.63;;;1.80;;
12703;SDS011;6416;52.182;7.650;2023-12-29T01:33:33;4.93;;;1.70;;
12703;SDS011;6416;52.182;7.650;2023-12-29T01:35:58;3.53;;;1.47;;
12703;SDS011;6416;52.182;7.650;2023-12-29T01:38:29;6.73;;;1.70;;
12703;SDS011;6416;52.182;7.650;2023-12-29T01:40:55;6.17;;;1.80;;
12703;SDS011;6416;52.182;7.650;2023-12-29T01:43:20;5.17;;;1.60;;
12703;SDS011;6416;52.182;7.650;2023-12-29T01:45:46;4.67;;;1.70;;
12703;SDS011;6416;52.182;7.650;2023-12-29T01:48:12;4.63;;;1.67;;
12703;SDS011;6416;52.182;7.650;2023-12-29T01:50:38;6.90;;;1.80;;
12703;SDS011;6416;52.182;7.650;2023-12-29T01:53:04;4.67;;;1.80;;
12703;SDS011;6416;52.182;7.650;2023-12-29T01:55:33;5.20;;;1.67;;
12703;SDS011;6416;52.182;7.650;2023-12-29T01:57:59;3.17;;;1.70;;
12703;SDS011;6416;52.182;7.650;2023-12-29T02:00:25;4.83;;;1.77;;
12703;SDS011;6416;52.182;7.650;2023-12-29T02:02:55;6.63;;;1.90;;
12703;SDS011;6416;52.182;7.650;2023-12-29T02:05:20;4.50;;;1.93;;
12703;SDS011;6416;52.182;7.650;2023-12-29T02:07:51;5.97;;;1.87;;
12703;SDS011;6416;52.182;7.650;2023-12-29T02:10:17;5.63;;;1.93;;
12703;SDS011;6416;52.182;7.650;2023-12-29T02:12:43;4.90;;;1.53;;
12703;SDS011;6416;52.182;7.650;2023-12-29T02:15:15;3.53;;;1.43;;
12703;SDS011;6416;52.182;7.650;2023-12-29T02:17:53;3.07;;;1.43;;
12703;SDS011;6416;52.182;7.650;2023-12-29T02:20:32;4.77;;;1.40;;
12703;SDS011;6416;52.182;7.650;2023-12-29T02:23:02;6.17;;;1.73;;
12703;SDS011;6416;52.182;7.650;2023-12-29T02:25:28;3.27;;;1.80;;
12703;SDS011;6416;52.182;7.650;2023-12-29T02:28:09;4.70;;;1.67;;
12703;SDS011;6416;52.182;7.650;2023-12-29T02:33:42;3.43;;;1.50;;
12703;SDS011;6416;52.182;7.650;2023-12-29T02:36:13;3.83;;;1.23;;
12703;SDS011;6416;52.182;7.650;2023-12-29T02:38:42;3.00;;;1.30;;
12703;SDS011;6416;52.182;7.650;2023-12-29T02:41:14;3.50;;;1.43;;
12703;SDS011;6416;52.182;7.650;2023-12-29T02:43:40;4.03;;;1.53;;
12703;SDS011;6416;52.182;7.650;2023-12-29T02:46:05;3.70;;;1.50;;
12703;SDS011;6416;52.182;7.650;2023-12-29T02:48:40;4.23;;;1.83;;
12703;SDS011;6416;52.182;7.650;2023-12-29T02:51:06;5.13;;;1.80;;
12703;SDS011;6416;52.182;7.650;2023-12-29T02:53:31;6.13;;;2.03;;
12703;SDS011;6416;52.182;7.650;2023-12-29T02:55:57;4.20;;;1.73;;
12703;SDS011;6416;52.182;7.650;2023-12-29T02:58:23;3.83;;;1.70;;
12703;SDS011;6416;52.182;7.650;2023-12-29T03:00:49;2.90;;;1.43;;
12703;SDS011;6416;52.182;7.650;2023-12-29T03:03:17;4.73;;;1.50;;
12703;SDS011;6416;52.182;7.650;2023-12-29T03:05:43;3.23;;;1.40;;
12703;SDS011;6416;52.182;7.650;2023-12-29T03:08:08;5.13;;;1.77;;
12703;SDS011;6416;52.182;7.650;2023-12-29T03:10:34;3.07;;;1.67;;
12703;SDS011;6416;52.182;7.650;2023-12-29T03:13:01;4.80;;;1.80;;
12703;SDS011;6416;52.182;7.650;2023-12-29T03:15:40;5.60;;;1.60;;
12703;SDS011;6416;52.182;7.650;2023-12-29T03:18:11;3.83;;;1.50;;
12703;SDS011;6416;52.182;7.650;2023-12-29T03:20:47;5.33;;;1.90;;
12703;SDS011;6416;52.182;7.650;2023-12-29T03:23:12;3.80;;;1.60;;
12703;SDS011;6416;52.182;7.650;2023-12-29T03:25:38;2.87;;;1.30;;
12703;SDS011;6416;52.182;7.650;2023-12-29T03:28:04;3.00;;;1.47;;
12703;SDS011;6416;52.182;7.650;2023-12-29T03:30:32;3.87;;;1.83;;
12703;SDS011;6416;52.182;7.650;2023-12-29T03:32:58;3.57;;;1.63;;
12703;SDS011;6416;52.182;7.650;2023-12-29T03:35:26;4.03;;;1.60;;
12703;SDS011;6416;52.182;7.650;2023-12-29T03:37:51;4.10;;;1.30;;
12703;SDS011;6416;52.182;7.650;2023-12-29T03:40:17;2.97;;;1.43;;
12703;SDS011;6416;52.182;7.650;2023-12-29T03:42:49;2.87;;;1.60;;
12703;SDS011;6416;52.182;7.650;2023-12-29T03:45:16;3.43;;;1.63;;
12703;SDS011;6416;52.182;7.650;2023-12-29T03:47:42;5.07;;;1.80;;
12703;SDS011;6416;52.182;7.650;2023-12-29T03:50:07;4.63;;;1.67;;
12703;SDS011;6416;52.182;7.650;2023-12-29T03:52:39;3.57;;;1.50;;
12703;SDS011;6416;52.182;7.650;2023-12-29T03:55:11;5.90;;;1.40;;
12703;SDS011;6416;52.182;7.650;2023-12-29T03:57:40;2.70;;;1.50;;
12703;SDS011;6416;52.182;7.650;2023-12-29T04:00:10;5.20;;;2.00;;
12703;SDS011;6416;52.182;7.650;2023-12-29T04:02:37;2.30;;;1.40;;
12703;SDS011;6416;52.182;7.650;2023-12-29T04:05:03;3.07;;;1.80;;
12703;SDS011;6416;52.182;7.650;2023-12-29T04:07:31;4.30;;;1.60;;
12703;SDS011;6416;52.182;7.650;2023-12-29T04:09:56;5.40;;;1.63;;
12703;SDS011;6416;52.182;7.650;2023-12-29T04:12:22;3.43;;;1.67;;
12703;SDS011;6416;52.182;7.650;2023-12-29T04:14:53;4.83;;;2.00;;
12703;SDS011;6416;52.182;7.650;2023-12-29T04:17:19;3.63;;;1.50;;
12703;SDS011;6416;52.182;7.650;2023-12-29T04:19:45;4.30;;;2.00;;
12703;SDS011;6416;52.182;7.650;2023-12-29T04:22:10;4.03;;;1.43;;
12703;SDS011;6416;52.182;7.650;2023-12-29T04:24:39;7.37;;;1.90;;
12703;SDS011;6416;52.182;7.650;2023-12-29T04:27:05;3.80;;;1.63;;
12703;SDS011;6416;52.182;7.650;2023-12-29T04:29:30;4.63;;;1.83;;
12703;SDS011;6416;52.182;7.650;2023-12-29T04:31:56;6.20;;;1.90;;
12703;SDS011;6416;52.182;7.650;2023-12-29T04:34:21;5.93;;;2.13;;
12703;SDS011;6416;52.182;7.650;2023-12-29T04:36:46;5.67;;;1.80;;
12703;SDS011;6416;52.182;7.650;2023-12-29T04:39:12;5.90;;;2.20;;
12703;SDS011;6416;52.182;7.650;2023-12-29T04:41:37;5.53;;;2.13;;
12703;SDS011;6416;52.182;7.650;2023-12-29T04:44:03;3.50;;;1.80;;
12703;SDS011;6416;52.182;7.650;2023-12-29T04:46:29;7.27;;;1.80;;
12703;SDS011;6416;52.182;7.650;2023-12-29T04:48:54;4.47;;;1.93;;
12703;SDS011;6416;52.182;7.650;2023-12-29T04:51:19;8.23;;;2.67;;
12703;SDS011;6416;52.182;7.650;2023-12-29T04:53:45;5.37;;;1.90;;
12703;SDS011;6416;52.182;7.650;2023-12-29T04:56:11;4.43;;;1.77;;
12703;SDS011;6416;52.182;7.650;2023-12-29T04:58:37;6.97;;;2.27;;
12703;SDS011;6416;52.182;7.650;2023-12-29T05:01:02;5.80;;;1.87;;
12703;SDS011;6416;52.182;7.650;2023-12-29T05:03:28;8.33;;;2.17;;
12703;SDS011;6416;52.182;7.650;2023-12-29T05:05:54;5.03;;;1.60;;
12703;SDS011;6416;52.182;7.650;2023-12-29T05:08:19;6.03;;;1.87;;
12703;SDS011;6416;52.182;7.650;2023-12-29T05:10:45;6.53;;;2.07;;
12703;SDS011;6416;52.182;7.650;2023-12-29T05:13:10;7.33;;;1.80;;
12703;SDS011;6416;52.182;7.650;2023-12-29T05:15:36;5.70;;;1.93;;
12703;SDS011;6416;52.182;7.650;2023-12-29T05:18:01;4.17;;;1.63;;
12703;SDS011;6416;52.182;7.650;2023-12-29T05:20:27;4.97;;;1.80;;
12703;SDS011;6416;52.182;7.650;2023-12-29T05:22:52;7.13;;;2.50;;
12703;SDS011;6416;52.182;7.650;2023-12-29T05:25:17;5.30;;;1.83;;
12703;SDS011;6416;52.182;7.650;2023-12-29T05:27:43;5.67;;;1.93;;
12703;SDS011;6416;52.182;7.650;2023-12-29T05:30:09;5.10;;;1.70;;
12703;SDS011;6416;52.182;7.650;2023-12-29T05:32:35;4.60;;;2.00;;
12703;SDS011;6416;52.182;7.650;2023-12-29T05:35:00;4.67;;;1.73;;
12703;SDS011;6416;52.182;7.650;2023-12-29T05:37:25;6.57;;;2.07;;
12703;SDS011;6416;52.182;7.650;2023-12-29T05:39:51;7.17;;;2.20;;
12703;SDS011;6416;52.182;7.650;2023-12-29T05:42:16;7.37;;;1.90;;
12703;SDS011;6416;52.182;7.650;2023-12-29T05:44:42;6.20;;;2.00;;
12703;SDS011;6416;52.182;7.650;2023-12-29T05:47:07;6.33;;;2.10;;
12703;SDS011;6416;52.182;7.650;2023-12-29T05:49:34;8.20;;;2.30;;
12703;SDS011;6416;52.182;7.650;2023-12-29T05:51:59;5.53;;;2.07;;
12703;SDS011;6416;52.182;7.650;2023-12-29T05:54:25;5.57;;;2.10;;
12703;SDS011;6416;52.182;7.650;2023-12-29T05:56:50;4.63;;;1.90;;
12703;SDS011;6416;52.182;7.650;2023-12-29T05:59:16;7.33;;;2.47;;
12703;SDS011;6416;52.182;7.650;2023-12-29T06:01:41;5.47;;;2.17;;
12703;SDS011;6416;52.182;7.650;2023-12-29T06:04:07;7.00;;;2.40;;
12703;SDS011;6416;52.182;7.650;2023-12-29T06:06:32;6.90;;;1.97;;
12703;SDS011;6416;52.182;7.650;2023-12-29T06:08:58;6.87;;;1.97;;
12703;SDS011;6416;52.182;7.650;2023-12-29T06:11:23;4.73;;;1.67;;
12703;SDS011;6416;52.182;7.650;2023-12-29T06:13:49;4.83;;;1.53;;
12703;SDS011;6416;52.182;7.650;2023-12-29T06:16:18;4.87;;;1.90;;
12703;SDS011;6416;52.182;7.650;2023-12-29T06:18:44;5.50;;;1.87;;
12703;SDS011;6416;52.182;7.650;2023-12-29T06:21:10;6.13;;;1.93;;
12703;SDS011;6416;52.182;7.650;2023-12-29T06:23:35;6.37;;;2.03;;
12703;SDS011;6416;52.182;7.650;2023-12-29T06:26:01;5.83;;;2.10;;
12703;SDS011;6416;52.182;7.650;2023-12-29T06:28:26;5.37;;;1.70;;
12703;SDS011;6416;52.182;7.650;2023-12-29T06:30:51;6.43;;;1.83;;
12703;SDS011;6416;52.182;7.650;2023-12-29T06:33:17;4.20;;;1.47;;
12703;SDS011;6416;52.182;7.650;2023-12-29T06:35:42;8.07;;;2.03;;
12703;SDS011;6416;52.182;7.650;2023-12-29T06:38:08;5.67;;;1.93;;
12703;SDS011;6416;52.182;7.650;2023-12-29T06:40:33;7.03;;;2.47;;
12703;SDS011;6416;52.182;7.650;2023-12-29T06:42:59;4.97;;;1.60;;
12703;SDS011;6416;52.182;7.650;2023-12-29T06:45:24;4.70;;;1.80;;
12703;SDS011;6416;52.182;7.650;2023-12-29T06:47:50;5.77;;;1.83;;
12703;SDS011;6416;52.182;7.650;2023-12-29T06:50:15;4.23;;;1.83;;
12703;SDS011;6416;52.182;7.650;2023-12-29T06:52:41;5.13;;;2.20;;
12703;SDS011;6416;52.182;7.650;2023-12-29T06:55:06;6.47;;;2.07;;
12703;SDS011;6416;52.182;7.650;2023-12-29T06:57:32;6.50;;;2.27;;
12703;SDS011;6416;52.182;7.650;2023-12-29T06:59:58;5.63;;;1.87;;
12703;SDS011;6416;52.182;7.650;2023-12-29T07:02:23;5.37;;;1.93;;
12703;SDS011;6416;52.182;7.650;2023-12-29T07:04:49;8.07;;;2.50;;
12703;SDS011;6416;52.182;7.650;2023-12-29T07:07:14;6.03;;;2.03;;
12703;SDS011;6416;52.182;7.650;2023-12-29T07:09:40;10.03;;;2.63;;
12703;SDS011;6416;52.182;7.650;2023-12-29T07:12:06;7.17;;;2.80;;
12703;SDS011;6416;52.182;7.650;2023-12-29T07:14:31;6.13;;;2.00;;
12703;SDS011;6416;52.182;7.650;2023-12-29T07:16:57;8.07;;;2.10;;
12703;SDS011;6416;52.182;7.650;2023-12-29T07:19:22;5.33;;;2.17;;
12703;SDS011;6416;52.182;7.650;2023-12-29T07:21:48;5.67;;;1.97;;
12703;SDS011;6416;52.182;7.650;2023-12-29T07:24:13;7.03;;;2.13;;
12703;SDS011;6416;52.182;7.650;2023-12-29T07:26:39;6.83;;;2.10;;
12703;SDS011;6416;52.182;7.650;2023-12-29T07:29:04;3.83;;;1.90;;
12703;SDS011;6416;52.182;7.650;2023-12-29T07:31:30;7.53;;;2.43;;
12703;SDS011;6416;52.182;7.650;2023-12-29T07:33:55;6.93;;;2.13;;
12703;SDS011;6416;52.182;7.650;2023-12-29T07:36:21;5.90;;;1.93;;
12703;SDS011;6416;52.182;7.650;2023-12-29T07:38:46;9.87;;;2.43;;
12703;SDS011;6416;52.182;7.650;2023-12-29T07:41:11;5.13;;;1.97;;
12703;SDS011;6416;52.182;7.650;2023-12-29T07:43:37;19.13;;;3.07;;
12703;SDS011;6416;52.182;7.650;2023-12-29T07:46:02;7.90;;;2.10;;
12703;SDS011;6416;52.182;7.650;2023-12-29T07:48:28;6.63;;;2.03;;
12703;SDS011;6416;52.182;7.650;2023-12-29T07:51:04;6.73;;;2.17;;
12703;SDS011;6416;52.182;7.650;2023-12-29T07:53:30;4.97;;;2.10;;
12703;SDS011;6416;52.182;7.650;2023-12-29T07:55:56;5.97;;;1.63;;
12703;SDS011;6416;52.182;7.650;2023-12-29T07:58:21;5.93;;;1.97;;
12703;SDS011;6416;52.182;7.650;2023-12-29T08:00:47;7.23;;;2.13;;
12703;SDS011;6416;52.182;7.650;2023-12-29T08:03:12;5.57;;;1.67;;
12703;SDS011;6416;52.182;7.650;2023-12-29T08:05:38;6.50;;;1.70;;
12703;SDS011;6416;52.182;7.650;2023-12-29T08:08:03;4.77;;;1.60;;
12703;SDS011;6416;52.182;7.650;2023-12-29T08:10:29;7.60;;;1.83;;
12703;SDS011;6416;52.182;7.650;2023-12-29T08:12:54;4.63;;;1.80;;
12703;SDS011;6416;52.182;7.650;2023-12-29T08:15:20;7.10;;;2.13;;
12703;SDS011;6416;52.182;7.650;2023-12-29T08:17:45;5.37;;;1.67;;
12703;SDS011;6416;52.182;7.650;2023-12-29T08:20:11;5.40;;;2.07;;
12703;SDS011;6416;52.182;7.650;2023-12-29T08:22:36;4.57;;;1.90;;
12703;SDS011;6416;52.182;7.650;2023-12-29T08:25:02;4.67;;;1.77;;
12703;SDS011;6416;52.182;7.650;2023-12-29T08:27:28;3.50;;;1.50;;
12703;SDS011;6416;52.182;7.650;2023-12-29T08:29:54;5.40;;;1.43;;
12703;SDS011;6416;52.182;7.650;2023-12-29T08:32:19;3.57;;;1.40;;
12703;SDS011;6416;52.182;7.650;2023-12-29T08:34:45;3.87;;;1.40;;
12703;SDS011;6416;52.182;7.650;2023-12-29T08:37:10;9.53;;;2.00;;
12703;SDS011;6416;52.182;7.650;2023-12-29T08:39:36;4.83;;;1.67;;
12703;SDS011;6416;52.182;7.650;2023-12-29T08:42:01;6.53;;;1.70;;
12703;SDS011;6416;52.182;7.650;2023-12-29T08:44:27;5.23;;;1.40;;
12703;SDS011;6416;52.182;7.650;2023-12-29T08:46:52;3.47;;;1.50;;
12703;SDS011;6416;52.182;7.650;2023-12-29T08:49:18;4.57;;;1.40;;
12703;SDS011;6416;52.182;7.650;2023-12-29T08:51:43;4.97;;;1.37;;
12703;SDS011;6416;52.182;7.650;2023-12-29T08:54:09;4.13;;;1.73;;
12703;SDS011;6416;52.182;7.650;2023-12-29T08:56:35;5.47;;;1.40;;
12703;SDS011;6416;52.182;7.650;2023-12-29T08:59:00;3.00;;;1.47;;
12703;SDS011;6416;52.182;7.650;2023-12-29T09:01:25;5.17;;;1.60;;
12703;SDS011;6416;52.182;7.650;2023-12-29T09:03:51;8.37;;;2.37;;
12703;SDS011;6416;52.182;7.650;2023-12-29T09:06:16;3.33;;;1.43;;
12703;SDS011;6416;52.182;7.650;2023-12-29T09:08:42;2.90;;;1.40;;
12703;SDS011;6416;52.182;7.650;2023-12-29T09:11:07;6.30;;;2.13;;
12703;SDS011;6416;52.182;7.650;2023-12-29T09:13:33;3.33;;;1.80;;
12703;SDS011;6416;52.182;7.650;2023-12-29T09:15:58;3.87;;;1.63;;
12703;SDS011;6416;52.182;7.650;2023-12-29T09:18:24;4.57;;;1.80;;
12703;SDS011;6416;52.182;7.650;2023-12-29T09:20:50;3.43;;;1.80;;
12703;SDS011;6416;52.182;7.650;2023-12-29T09:23:15;4.33;;;1.87;;
12703;SDS011;6416;52.182;7.650;2023-12-29T09:25:41;4.97;;;1.73;;
12703;SDS011;6416;52.182;7.650;2023-12-29T09:28:07;6.03;;;2.10;;
12703;SDS011;6416;52.182;7.650;2023-12-29T09:30:32;6.07;;;1.47;;
12703;SDS011;6416;52.182;7.650;2023-12-29T09:32:58;7.10;;;1.90;;
12703;SDS011;6416;52.182;7.650;2023-12-29T09:35:23;3.60;;;1.87;;
12703;SDS011;6416;52.182;7.650;2023-12-29T09:37:49;5.20;;;1.50;;
12703;SDS011;6416;52.182;7.650;2023-12-29T09:40:14;3.57;;;1.60;;
12703;SDS011;6416;52.182;7.650;2023-12-29T09:42:40;5.67;;;1.60;;
12703;SDS011;6416;52.182;7.650;2023-12-29T09:45:10;4.67;;;1.60;;
12703;SDS011;6416;52.182;7.650;2023-12-29T09:47:37;4.57;;;1.67;;
12703;SDS011;6416;52.182;7.650;2023-12-29T09:50:04;6.37;;;1.80;;
12703;SDS011;6416;52.182;7.650;2023-12-29T09:52:31;4.10;;;1.70;;
12703;SDS011;6416;52.182;7.650;2023-12-29T09:54:58;2.80;;;1.27;;
12703;SDS011;6416;52.182;7.650;2023-12-29T09:57:23;3.83;;;1.50;;
12703;SDS011;6416;52.182;7.650;2023-12-29T09:59:50;5.03;;;1.60;;
12703;SDS011;6416;52.182;7.650;2023-12-29T10:02:16;3.77;;;1.43;;
12703;SDS011;6416;52.182;7.650;2023-12-29T10:04:41;2.77;;;1.50;;
12703;SDS011;6416;52.182;7.650;2023-12-29T10:07:07;3.93;;;1.60;;
12703;SDS011;6416;52.182;7.650;2023-12-29T10:09:36;5.80;;;1.90;;
12703;SDS011;6416;52.182;7.650;2023-12-29T10:12:02;2.97;;;1.37;;
12703;SDS011;6416;52.182;7.650;2023-12-29T10:14:43;3.53;;;1.40;;
12703;SDS011;6416;52.182;7.650;2023-12-29T10:17:18;4.67;;;1.40;;
12703;SDS011;6416;52.182;7.650;2023-12-29T10:20:02;3.40;;;1.60;;
12703;SDS011;6416;52.182;7.650;2023-12-29T10:22:37;4.13;;;1.60;;
12703;SDS011;6416;52.182;7.650;2023-12-29T10:25:16;1.77;;;1.10;;
12703;SDS011;6416;52.182;7.650;2023-12-29T10:27:42;2.30;;;1.20;;
12703;SDS011;6416;52.182;7.650;2023-12-29T10:30:09;2.17;;;1.07;;
12703;SDS011;6416;52.182;7.650;2023-12-29T10:32:35;5.20;;;1.43;;
12703;SDS011;6416;52.182;7.650;2023-12-29T10:35:07;4.03;;;1.33;;
12703;SDS011;6416;52.182;7.650;2023-12-29T10:37:33;2.67;;;1.30;;
12703;SDS011;6416;52.182;7.650;2023-12-29T10:39:59;2.67;;;1.60;;
12703;SDS011;6416;52.182;7.650;2023-12-29T10:42:24;1.67;;;1.23;;
12703;SDS011;6416;52.182;7.650;2023-12-29T10:44:53;2.63;;;1.30;;
12703;SDS011;6416;52.182;7.650;2023-12-29T10:47:30;3.93;;;1.30;;
12703;SDS011;6416;52.182;7.650;2023-12-29T10:49:58;1.87;;;1.20;;
12703;SDS011;6416;52.182;7.650;2023-12-29T10:52:24;3.17;;;1.20;;
12703;SDS011;6416;52.182;7.650;2023-12-29T10:54:49;2.20;;;1.20;;
12703;SDS011;6416;52.182;7.650;2023-12-29T10:57:28;2.30;;;1.10;;
12703;SDS011;6416;52.182;7.650;2023-12-29T10:59:57;3.93;;;1.33;;
12703;SDS011;6416;52.182;7.650;2023-12-29T11:02:22;5.53;;;2.07;;
12703;SDS011;6416;52.182;7.650;2023-12-29T11:04:47;1.70;;;1.10;;
12703;SDS011;6416;52.182;7.650;2023-12-29T11:07:13;1.90;;;1.10;;
12703;SDS011;6416;52.182;7.650;2023-12-29T11:09:38;3.13;;;1.30;;
12703;SDS011;6416;52.182;7.650;2023-12-29T11:12:05;2.40;;;1.30;;
12703;SDS011;6416;52.182;7.650;2023-12-29T11:14:31;4.97;;;1.57;;
12703;SDS011;6416;52.182;7.650;2023-12-29T11:16:57;2.67;;;1.20;;
12703;SDS011;6416;52.182;7.650;2023-12-29T11:19:22;2.30;;;1.27;;
12703;SDS011;6416;52.182;7.650;2023-12-29T11:21:48;1.83;;;0.97;;
12703;SDS011;6416;52.182;7.650;2023-12-29T11:24:20;3.73;;;1.30;;
12703;SDS011;6416;52.182;7.650;2023-12-29T11:26:45;3.60;;;1.10;;
12703;SDS011;6416;52.182;7.650;2023-12-29T11:29:13;1.73;;;0.93;;
12703;SDS011;6416;52.182;7.650;2023-12-29T11:31:40;1.73;;;1.00;;
12703;SDS011;6416;52.182;7.650;2023-12-29T11:34:13;2.13;;;0.87;;
12703;SDS011;6416;52.182;7.650;2023-12-29T11:37:02;1.53;;;0.87;;
12703;SDS011;6416;52.182;7.650;2023-12-29T11:39:47;2.30;;;0.93;;
12703;SDS011;6416;52.182;7.650;2023-12-29T11:42:19;1.83;;;0.80;;
12703;SDS011;6416;52.182;7.650;2023-12-29T11:44:50;3.90;;;1.03;;
12703;SDS011;6416;52.182;7.650;2023-12-29T11:47:34;1.10;;;0.67;;
12703;SDS011;6416;52.182;7.650;2023-12-29T11:50:00;1.30;;;0.80;;
12703;SDS011;6416;52.182;7.650;2023-12-29T11:52:35;1.00;;;0.70;;
12703;SDS011;6416;52.182;7.650;2023-12-29T11:55:07;1.63;;;0.90;;
12703;SDS011;6416;52.182;7.650;2023-12-29T11:57:36;1.00;;;0.70;;
12703;SDS011;6416;52.182;7.650;2023-12-29T12:00:02;0.70;;;0.60;;
12703;SDS011;6416;52.182;7.650;2023-12-29T12:02:28;0.73;;;0.70;;
12703;SDS011;6416;52.182;7.650;2023-12-29T12:04:53;3.30;;;0.87;;
12703;SDS011;6416;52.182;7.650;2023-12-29T12:09:48;1.23;;;0.80;;
12703;SDS011;6416;52.182;7.650;2023-12-29T12:12:13;2.77;;;1.00;;
12703;SDS011;6416;52.182;7.650;2023-12-29T12:14:48;1.23;;;0.70;;
12703;SDS011;6416;52.182;7.650;2023-12-29T12:17:27;1.53;;;0.70;;
12703;SDS011;6416;52.182;7.650;2023-12-29T12:19:57;1.43;;;0.80;;
12703;SDS011;6416;52.182;7.650;2023-12-29T12:22:24;1.03;;;0.70;;
12703;SDS011;6416;52.182;7.650;2023-12-29T12:24:55;2.00;;;1.10;;
12703;SDS011;6416;52.182;7.650;2023-12-29T12:27:22;1.47;;;1.00;;
12703;SDS011;6416;52.182;7.650;2023-12-29T12:29:48;2.00;;;0.80;;
12703;SDS011;6416;52.182;7.650;2023-12-29T12:32:15;0.80;;;0.80;;
12703;SDS011;6416;52.182;7.650;2023-12-29T12:34:41;1.43;;;1.07;;
12703;SDS011;6416;52.182;7.650;2023-12-29T12:37:06;1.53;;;0.87;;
12703;SDS011;6416;52.182;7.650;2023-12-29T12:39:40;0.93;;;0.73;;
12703;SDS011;6416;52.182;7.650;2023-12-29T12:42:05;1.73;;;1.20;;
12703;SDS011;6416;52.182;7.650;2023-12-29T12:44:31;2.07;;;0.90;;
12703;SDS011;6416;52.182;7.650;2023-12-29T12:46:57;1.70;;;0.80;;
12703;SDS011;6416;52.182;7.650;2023-12-29T12:49:25;1.87;;;0.80;;
12703;SDS011;6416;52.182;7.650;2023-12-29T12:51:50;1.80;;;0.80;;
12703;SDS011;6416;52.182;7.650;2023-12-29T12:54:18;2.40;;;0.90;;
12703;SDS011;6416;52.182;7.650;2023-12-29T12:56:44;1.80;;;1.07;;
12703;SDS011;6416;52.182;7.650;2023-12-29T12:59:10;0.77;;;0.77;;
12703;SDS011;6416;52.182;7.650;2023-12-29T13:01:37;2.70;;;1.20;;
12703;SDS011;6416;52.182;7.650;2023-12-29T13:04:03;1.60;;;1.00;;
12703;SDS011;6416;52.182;7.650;2023-12-29T13:06:29;1.47;;;1.20;;
12703;SDS011;6416;52.182;7.650;2023-12-29T13:08:58;2.07;;;0.90;;
12703;SDS011;6416;52.182;7.650;2023-12-29T13:11:25;2.10;;;1.10;;
12703;SDS011;6416;52.182;7.650;2023-12-29T13:13:51;1.47;;;0.90;;
12703;SDS011;6416;52.182;7.650;2023-12-29T13:16:16;1.70;;;0.90;;
12703;SDS011;6416;52.182;7.650;2023-12-29T13:18:42;3.30;;;1.10;;
12703;SDS011;6416;52.182;7.650;2023-12-29T13:21:07;2.30;;;0.93;;
12703;SDS011;6416;52.182;7.650;2023-12-29T13:23:33;2.77;;;1.20;;
12703;SDS011;6416;52.182;7.650;2023-12-29T13:25:59;3.00;;;1.00;;
12703;SDS011;6416;52.182;7.650;2023-12-29T13:28:29;3.73;;;1.30;;
12703;SDS011;6416;52.182;7.650;2023-12-29T13:30:56;4.53;;;1.20;;
12703;SDS011;6416;52.182;7.650;2023-12-29T13:36:11;2.70;;;1.10;;
12703;SDS011;6416;52.182;7.650;2023-12-29T13:38:56;2.83;;;1.30;;
12703;SDS011;6416;52.182;7.650;2023-12-29T13:41:28;2.03;;;1.03;;
12703;SDS011;6416;52.182;7.650;2023-12-29T13:43:55;3.13;;;1.30;;
12703;SDS011;6416;52.182;7.650;2023-12-29T13:46:21;2.97;;;1.20;;
12703;SDS011;6416;52.182;7.650;2023-12-29T13:48:48;2.77;;;1.00;;
12703;SDS011;6416;52.182;7.650;2023-12-29T13:51:13;1.97;;;1.23;;
12703;SDS011;6416;52.182;7.650;2023-12-29T13:53:39;3.00;;;1.20;;
12703;SDS011;6416;52.182;7.650;2023-12-29T13:56:06;1.83;;;1.20;;
12703;SDS011;6416;52.182;7.650;2023-12-29T13:58:35;3.10;;;1.30;;
12703;SDS011;6416;52.182;7.650;2023-12-29T14:01:03;2.60;;;1.23;;
12703;SDS011;6416;52.182;7.650;2023-12-29T14:03:32;2.30;;;1.07;;
12703;SDS011;6416;52.182;7.650;2023-12-29T14:06:08;2.73;;;1.10;;
12703;SDS011;6416;52.182;7.650;2023-12-29T14:08:40;4.17;;;1.67;;
12703;SDS011;6416;52.182;7.650;2023-12-29T14:11:09;2.80;;;1.50;;
12703;SDS011;6416;52.182;7.650;2023-12-29T14:13:35;2.70;;;1.23;;
12703;SDS011;6416;52.182;7.650;2023-12-29T14:16:06;2.10;;;1.10;;
12703;SDS011;6416;52.182;7.650;2023-12-29T14:21:03;2.57;;;1.17;;
12703;SDS011;6416;52.182;7.650;2023-12-29T14:23:46;2.60;;;1.30;;
12703;SDS011;6416;52.182;7.650;2023-12-29T14:26:31;2.60;;;1.37;;
12703;SDS011;6416;52.182;7.650;2023-12-29T14:29:15;3.77;;;1.13;;
12703;SDS011;6416;52.182;7.650;2023-12-29T14:31:41;2.23;;;1.20;;
12703;SDS011;6416;52.182;7.650;2023-12-29T14:34:08;2.20;;;1.27;;
12703;SDS011;6416;52.182;7.650;2023-12-29T14:36:34;2.90;;;1.27;;
12703;SDS011;6416;52.182;7.650;2023-12-29T14:39:01;4.33;;;1.70;;
12703;SDS011;6416;52.182;7.650;2023-12-29T14:41:28;3.73;;;1.70;;
12703;SDS011;6416;52.182;7.650;2023-12-29T14:43:54;4.67;;;1.80;;
12703;SDS011;6416;52.182;7.650;2023-12-29T14:46:19;5.00;;;1.70;;
12703;SDS011;6416;52.182;7.650;2023-12-29T14:48:45;5.67;;;1.73;;
12703;SDS011;6416;52.182;7.650;2023-12-29T14:51:10;4.07;;;1.20;;
12703;SDS011;6416;52.182;7.650;2023-12-29T14:53:36;2.70;;;1.33;;
12703;SDS011;6416;52.182;7.650;2023-12-29T14:56:02;2.93;;;1.40;;
12703;SDS011;6416;52.182;7.650;2023-12-29T14:58:28;3.00;;;1.20;;
12703;SDS011;6416;52.182;7.650;2023-12-29T15:00:54;4.13;;;1.50;;
12703;SDS011;6416;52.182;7.650;2023-12-29T15:03:19;2.67;;;1.37;;
12703;SDS011;6416;52.182;7.650;2023-12-29T15:05:45;4.00;;;1.80;;
12703;SDS011;6416;52.182;7.650;2023-12-29T15:08:11;3.17;;;1.70;;
12703;SDS011;6416;52.182;7.650;2023-12-29T15:10:37;3.57;;;1.43;;
12703;SDS011;6416;52.182;7.650;2023-12-29T15:13:02;3.43;;;1.60;;